sensor_id;sensor_type;location;lat;lon;timestamp;temperature;humidity
28863;DHT22;15994;51.796;13.006;2023-04-01T00:01:01;10.00;99.90
28863;DHT22;15994;51.796;13.006;2023-04-01T00:03:29;10.00;99.90
28863;DHT22;15994;51.796;13.006;2023-04-01T00:05:57;10.00;99.90
28863;DHT22;15994;51.796;13.006;2023-04-01T00:08:25;10.00;99.90
28863;DHT22;15994;51.796;13.006;2023-04-01T00:10:52;10.00;99.90
28863;DHT22;15994;51.796;13.006;2023-04-01T00:13:18;10.00;99.90
28863;DHT22;15994;51.796;13.006;2023-04-01T00:15:45;10.00;99.90
28863;DHT22;15994;51.796;13.006;2023-04-01T00:18:12;9.90;99.90
28863;DHT22;15994;51.796;13.006;2023-04-01T00:20:38;9.90;99.90
28863;DHT22;15994;51.796;13.006;2023-04-01T00:23:05;9.90;99.90
28863;DHT22;15994;51.796;13.006;2023-04-01T00:25:32;9.90;99.90
28863;DHT22;15994;51.796;13.006;2023-04-01T00:27:58;9.90;99.90
28863;DHT22;15994;51.796;13.006;2023-04-01T00:30:25;9.90;99.90
28863;DHT22;15994;51.796;13.006;2023-04-01T00:32:52;9.90;99.90
28863;DHT22;15994;51.796;13.006;2023-04-01T00:35:19;9.90;99.90
28863;DHT22;15994;51.796;13.006;2023-04-01T00:37:45;9.90;99.90
28863;DHT22;15994;51.796;13.006;2023-04-01T00:40:25;9.90;99.90
28863;DHT22;15994;51.796;13.006;2023-04-01T00:42:52;9.90;99.90
28863;DHT22;15994;51.796;13.006;2023-04-01T00:45:28;9.90;99.90
28863;DHT22;15994;51.796;13.006;2023-04-01T00:47:56;9.90;99.90
28863;DHT22;15994;51.796;13.006;2023-04-01T00:50:24;9.80;99.90
28863;DHT22;15994;51.796;13.006;2023-04-01T00:52:52;9.90;99.90
28863;DHT22;15994;51.796;13.006;2023-04-01T00:55:20;9.90;99.90
28863;DHT22;15994;51.796;13.006;2023-04-01T00:57:47;9.80;99.90
28863;DHT22;15994;51.796;13.006;2023-04-01T01:00:16;9.80;99.90
28863;DHT22;15994;51.796;13.006;2023-04-01T01:02:44;9.80;99.90
28863;DHT22;15994;51.796;13.006;2023-04-01T01:05:14;9.80;99.90
28863;DHT22;15994;51.796;13.006;2023-04-01T01:07:53;9.80;99.90
28863;DHT22;15994;51.796;13.006;2023-04-01T01:10:36;9.80;99.90
28863;DHT22;15994;51.796;13.006;2023-04-01T01:15:41;9.80;99.90
28863;DHT22;15994;51.796;13.006;2023-04-01T01:18:24;9.80;99.90
28863;DHT22;15994;51.796;13.006;2023-04-01T01:21:17;9.80;99.90
28863;DHT22;15994;51.796;13.006;2023-04-01T01:26:55;9.80;99.90
28863;DHT22;15994;51.796;13.006;2023-04-01T01:37:39;9.80;99.90
28863;DHT22;15994;51.796;13.006;2023-04-01T01:40:09;9.80;99.90
28863;DHT22;15994;51.796;13.006;2023-04-01T01:42:39;9.70;99.90
28863;DHT22;15994;51.796;13.006;2023-04-01T01:45:09;9.70;99.90
28863;DHT22;15994;51.796;13.006;2023-04-01T01:47:37;9.70;99.90
28863;DHT22;15994;51.796;13.006;2023-04-01T01:50:05;9.70;99.90
28863;DHT22;15994;51.796;13.006;2023-04-01T01:52:32;9.70;99.90
28863;DHT22;15994;51.796;13.006;2023-04-01T01:54:58;9.70;99.90
28863;DHT22;15994;51.796;13.006;2023-04-01T01:57:31;9.60;99.90
28863;DHT22;15994;51.796;13.006;2023-04-01T02:00:06;9.70;99.90
28863;DHT22;15994;51.796;13.006;2023-04-01T02:02:41;9.70;99.90
28863;DHT22;15994;51.796;13.006;2023-04-01T02:05:11;9.70;99.90
28863;DHT22;15994;51.796;13.006;2023-04-01T02:07:43;9.70;99.90
28863;DHT22;15994;51.796;13.006;2023-04-01T02:10:12;9.70;99.90
28863;DHT22;15994;51.796;13.006;2023-04-01T02:12:40;9.70;99.90
28863;DHT22;15994;51.796;13.006;2023-04-01T02:15:10;9.70;99.90
28863;DHT22;15994;51.796;13.006;2023-04-01T02:17:41;9.60;99.90
28863;DHT22;15994;51.796;13.006;2023-04-01T02:22:43;9.60;99.90
28863;DHT22;15994;51.796;13.006;2023-04-01T02:25:14;9.60;99.90
28863;DHT22;15994;51.796;13.006;2023-04-01T02:27:42;9.60;99.90
28863;DHT22;15994;51.796;13.006;2023-04-01T02:30:10;9.60;99.90
28863;DHT22;15994;51.796;13.006;2023-04-01T02:32:38;9.60;99.90
28863;DHT22;15994;51.796;13.006;2023-04-01T02:35:07;9.60;99.90
28863;DHT22;15994;51.796;13.006;2023-04-01T02:37:37;9.60;99.90
28863;DHT22;15994;51.796;13.006;2023-04-01T02:40:06;9.60;99.90
28863;DHT22;15994;51.796;13.006;2023-04-01T02:42:33;9.60;99.90
28863;DHT22;15994;51.796;13.006;2023-04-01T02:45:00;9.60;99.90
28863;DHT22;15994;51.796;13.006;2023-04-01T02:47:27;9.60;99.90
28863;DHT22;15994;51.796;13.006;2023-04-01T02:49:54;9.60;99.90
28863;DHT22;15994;51.796;13.006;2023-04-01T02:52:24;9.60;99.90
28863;DHT22;15994;51.796;13.006;2023-04-01T02:54:51;9.60;99.90
28863;DHT22;15994;51.796;13.006;2023-04-01T02:57:18;9.60;99.90
28863;DHT22;15994;51.796;13.006;2023-04-01T02:59:45;9.60;99.90
28863;DHT22;15994;51.796;13.006;2023-04-01T03:02:12;9.60;99.90
28863;DHT22;15994;51.796;13.006;2023-04-01T03:04:39;9.60;99.90
28863;DHT22;15994;51.796;13.006;2023-04-01T03:07:05;9.60;99.90
28863;DHT22;15994;51.796;13.006;2023-04-01T03:09:32;9.60;99.90
28863;DHT22;15994;51.796;13.006;2023-04-01T03:11:58;9.60;99.90
28863;DHT22;15994;51.796;13.006;2023-04-01T03:14:25;9.60;99.90
28863;DHT22;15994;51.796;13.006;2023-04-01T03:16:51;9.60;99.90
28863;DHT22;15994;51.796;13.006;2023-04-01T03:19:18;9.60;99.90
28863;DHT22;15994;51.796;13.006;2023-04-01T03:21:44;9.60;99.90
28863;DHT22;15994;51.796;13.006;2023-04-01T03:24:11;9.60;99.90
28863;DHT22;15994;51.796;13.006;2023-04-01T03:26:37;9.60;99.90
28863;DHT22;15994;51.796;13.006;2023-04-01T03:29:04;9.60;99.90
28863;DHT22;15994;51.796;13.006;2023-04-01T03:31:31;9.60;99.90
28863;DHT22;15994;51.796;13.006;2023-04-01T03:33:57;9.60;99.90
28863;DHT22;15994;51.796;13.006;2023-04-01T03:36:24;9.60;99.90
28863;DHT22;15994;51.796;13.006;2023-04-01T03:38:50;9.60;99.90
28863;DHT22;15994;51.796;13.006;2023-04-01T03:41:17;9.60;99.90
28863;DHT22;15994;51.796;13.006;2023-04-01T03:43:43;9.60;99.90
28863;DHT22;15994;51.796;13.006;2023-04-01T03:46:10;9.60;99.90
28863;DHT22;15994;51.796;13.006;2023-04-01T03:48:37;9.60;99.90
28863;DHT22;15994;51.796;13.006;2023-04-01T03:51:07;9.60;99.90
28863;DHT22;15994;51.796;13.006;2023-04-01T03:53:33;9.60;99.90
28863;DHT22;15994;51.796;13.006;2023-04-01T03:56:06;9.60;99.90
28863;DHT22;15994;51.796;13.006;2023-04-01T03:58:33;9.60;99.90
28863;DHT22;15994;51.796;13.006;2023-04-01T04:00:59;9.60;99.90
28863;DHT22;15994;51.796;13.006;2023-04-01T04:03:26;9.60;99.90
28863;DHT22;15994;51.796;13.006;2023-04-01T04:05:53;9.60;99.90
28863;DHT22;15994;51.796;13.006;2023-04-01T04:08:20;9.60;99.90
28863;DHT22;15994;51.796;13.006;2023-04-01T04:10:47;9.60;99.90
28863;DHT22;15994;51.796;13.006;2023-04-01T04:13:20;9.50;99.90
28863;DHT22;15994;51.796;13.006;2023-04-01T04:15:46;9.50;99.90
28863;DHT22;15994;51.796;13.006;2023-04-01T04:18:13;9.50;99.90
28863;DHT22;15994;51.796;13.006;2023-04-01T04:20:46;9.50;99.90
28863;DHT22;15994;51.796;13.006;2023-04-01T04:23:15;9.50;99.90
28863;DHT22;15994;51.796;13.006;2023-04-01T04:25:52;9.50;99.90
28863;DHT22;15994;51.796;13.006;2023-04-01T04:28:19;9.40;99.90
28863;DHT22;15994;51.796;13.006;2023-04-01T04:30:45;9.40;99.90
28863;DHT22;15994;51.796;13.006;2023-04-01T04:33:12;9.40;99.90
28863;DHT22;15994;51.796;13.006;2023-04-01T04:35:38;9.50;99.90
28863;DHT22;15994;51.796;13.006;2023-04-01T04:38:05;9.50;99.90
28863;DHT22;15994;51.796;13.006;2023-04-01T04:40:31;9.50;99.90
28863;DHT22;15994;51.796;13.006;2023-04-01T04:42:58;9.50;99.90
28863;DHT22;15994;51.796;13.006;2023-04-01T04:45:24;9.50;99.90
28863;DHT22;15994;51.796;13.006;2023-04-01T04:47:51;9.60;99.90
28863;DHT22;15994;51.796;13.006;2023-04-01T04:50:17;9.50;99.90
28863;DHT22;15994;51.796;13.006;2023-04-01T04:52:44;9.50;99.90
28863;DHT22;15994;51.796;13.006;2023-04-01T04:55:10;9.50;99.90
28863;DHT22;15994;51.796;13.006;2023-04-01T04:57:37;9.50;99.90
28863;DHT22;15994;51.796;13.006;2023-04-01T05:00:04;9.50;99.90
28863;DHT22;15994;51.796;13.006;2023-04-01T05:02:30;9.50;99.90
28863;DHT22;15994;51.796;13.006;2023-04-01T05:04:57;9.50;99.90
28863;DHT22;15994;51.796;13.006;2023-04-01T05:07:23;9.50;99.90
28863;DHT22;15994;51.796;13.006;2023-04-01T05:09:50;9.50;99.90
28863;DHT22;15994;51.796;13.006;2023-04-01T05:12:17;9.50;99.90
28863;DHT22;15994;51.796;13.006;2023-04-01T05:14:43;9.50;99.90
28863;DHT22;15994;51.796;13.006;2023-04-01T05:17:11;9.50;99.90
28863;DHT22;15994;51.796;13.006;2023-04-01T05:19:38;9.60;99.90
28863;DHT22;15994;51.796;13.006;2023-04-01T05:22:06;9.60;99.90
28863;DHT22;15994;51.796;13.006;2023-04-01T05:24:32;9.60;99.90
28863;DHT22;15994;51.796;13.006;2023-04-01T05:26:59;9.70;99.90
28863;DHT22;15994;51.796;13.006;2023-04-01T05:29:26;9.60;99.90
28863;DHT22;15994;51.796;13.006;2023-04-01T05:31:53;9.70;99.90
28863;DHT22;15994;51.796;13.006;2023-04-01T05:34:19;9.60;99.90
28863;DHT22;15994;51.796;13.006;2023-04-01T05:36:46;9.70;99.90
28863;DHT22;15994;51.796;13.006;2023-04-01T05:39:12;9.70;99.90
28863;DHT22;15994;51.796;13.006;2023-04-01T05:41:39;9.70;99.90
28863;DHT22;15994;51.796;13.006;2023-04-01T05:44:05;9.80;99.90
28863;DHT22;15994;51.796;13.006;2023-04-01T05:46:32;9.80;99.90
28863;DHT22;15994;51.796;13.006;2023-04-01T05:48:58;9.80;99.90
28863;DHT22;15994;51.796;13.006;2023-04-01T05:51:25;9.90;99.90
28863;DHT22;15994;51.796;13.006;2023-04-01T05:53:51;9.90;99.90
28863;DHT22;15994;51.796;13.006;2023-04-01T05:56:18;9.90;99.90
28863;DHT22;15994;51.796;13.006;2023-04-01T05:58:50;9.90;99.90
28863;DHT22;15994;51.796;13.006;2023-04-01T06:01:17;9.90;99.90
28863;DHT22;15994;51.796;13.006;2023-04-01T06:03:44;10.00;99.90
28863;DHT22;15994;51.796;13.006;2023-04-01T06:06:36;10.00;99.90
28863;DHT22;15994;51.796;13.006;2023-04-01T06:09:16;10.10;99.90
28863;DHT22;15994;51.796;13.006;2023-04-01T06:12:07;10.20;99.90
28863;DHT22;15994;51.796;13.006;2023-04-01T06:17:52;10.20;99.90
28863;DHT22;15994;51.796;13.006;2023-04-01T06:26:38;10.50;99.90
28863;DHT22;15994;51.796;13.006;2023-04-01T06:29:28;10.50;99.90
28863;DHT22;15994;51.796;13.006;2023-04-01T06:37:33;10.50;99.90
28863;DHT22;15994;51.796;13.006;2023-04-01T06:45:28;10.60;99.90
28863;DHT22;15994;51.796;13.006;2023-04-01T06:48:06;10.40;99.90
28863;DHT22;15994;51.796;13.006;2023-04-01T06:50:40;10.40;99.90
28863;DHT22;15994;51.796;13.006;2023-04-01T06:53:21;10.40;99.90
28863;DHT22;15994;51.796;13.006;2023-04-01T06:55:57;10.40;99.90
28863;DHT22;15994;51.796;13.006;2023-04-01T06:58:27;10.40;99.90
28863;DHT22;15994;51.796;13.006;2023-04-01T07:01:01;10.50;99.90
28863;DHT22;15994;51.796;13.006;2023-04-01T07:03:44;10.50;99.90
28863;DHT22;15994;51.796;13.006;2023-04-01T07:06:28;10.60;99.90
28863;DHT22;15994;51.796;13.006;2023-04-01T07:09:00;10.70;99.90
28863;DHT22;15994;51.796;13.006;2023-04-01T07:11:31;10.70;99.90
28863;DHT22;15994;51.796;13.006;2023-04-01T07:14:06;10.80;99.90
28863;DHT22;15994;51.796;13.006;2023-04-01T07:16:59;10.70;99.90
28863;DHT22;15994;51.796;13.006;2023-04-01T07:19:36;10.90;99.90
28863;DHT22;15994;51.796;13.006;2023-04-01T07:22:21;10.90;99.90
28863;DHT22;15994;51.796;13.006;2023-04-01T07:24:51;11.00;99.90
28863;DHT22;15994;51.796;13.006;2023-04-01T07:27:17;11.10;99.90
28863;DHT22;15994;51.796;13.006;2023-04-01T07:29:44;11.10;99.90
28863;DHT22;15994;51.796;13.006;2023-04-01T07:32:39;11.20;99.90
28863;DHT22;15994;51.796;13.006;2023-04-01T07:35:34;11.30;99.90
28863;DHT22;15994;51.796;13.006;2023-04-01T07:38:12;11.40;99.90
28863;DHT22;15994;51.796;13.006;2023-04-01T07:40:45;11.40;99.90
28863;DHT22;15994;51.796;13.006;2023-04-01T07:43:38;11.30;99.90
28863;DHT22;15994;51.796;13.006;2023-04-01T07:46:18;11.30;99.90
28863;DHT22;15994;51.796;13.006;2023-04-01T07:51:51;11.40;99.90
28863;DHT22;15994;51.796;13.006;2023-04-01T07:54:45;11.30;99.90
28863;DHT22;15994;51.796;13.006;2023-04-01T08:03:28;11.40;99.90
28863;DHT22;15994;51.796;13.006;2023-04-01T08:11:17;11.70;99.90
28863;DHT22;15994;51.796;13.006;2023-04-01T08:17:09;11.80;99.90
28863;DHT22;15994;51.796;13.006;2023-04-01T08:20:18;11.80;99.90
28863;DHT22;15994;51.796;13.006;2023-04-01T08:22:51;11.90;99.90
28863;DHT22;15994;51.796;13.006;2023-04-01T08:25:22;12.10;99.90
28863;DHT22;15994;51.796;13.006;2023-04-01T08:30:53;12.20;99.90
28863;DHT22;15994;51.796;13.006;2023-04-01T08:33:25;12.20;99.90
28863;DHT22;15994;51.796;13.006;2023-04-01T08:42:00;12.10;99.90
28863;DHT22;15994;51.796;13.006;2023-04-01T08:44:58;12.00;99.90
28863;DHT22;15994;51.796;13.006;2023-04-01T08:52:57;12.30;99.90
28863;DHT22;15994;51.796;13.006;2023-04-01T08:58:44;12.60;99.90
28863;DHT22;15994;51.796;13.006;2023-04-01T09:10:24;12.20;99.90
28863;DHT22;15994;51.796;13.006;2023-04-01T09:21:49;12.30;99.90
28863;DHT22;15994;51.796;13.006;2023-04-01T09:27:32;12.10;99.90
28863;DHT22;15994;51.796;13.006;2023-04-01T09:33:33;12.10;99.90
28863;DHT22;15994;51.796;13.006;2023-04-01T09:39:41;12.10;99.90
28863;DHT22;15994;51.796;13.006;2023-04-01T09:44:59;12.00;99.90
28863;DHT22;15994;51.796;13.006;2023-04-01T09:47:55;12.10;99.90
28863;DHT22;15994;51.796;13.006;2023-04-01T09:50:42;12.10;99.90
28863;DHT22;15994;51.796;13.006;2023-04-01T09:59:15;12.10;99.90
28863;DHT22;15994;51.796;13.006;2023-04-01T10:04:49;12.20;99.90
28863;DHT22;15994;51.796;13.006;2023-04-01T10:16:12;12.20;99.90
28863;DHT22;15994;51.796;13.006;2023-04-01T10:18:35;12.10;99.90
28863;DHT22;15994;51.796;13.006;2023-04-01T10:23:49;12.30;99.90
28863;DHT22;15994;51.796;13.006;2023-04-01T10:26:31;12.40;99.90
28863;DHT22;15994;51.796;13.006;2023-04-01T10:35:06;12.50;99.90
28863;DHT22;15994;51.796;13.006;2023-04-01T10:38:02;12.60;99.90
28863;DHT22;15994;51.796;13.006;2023-04-01T10:40:44;12.60;99.90
28863;DHT22;15994;51.796;13.006;2023-04-01T10:49:28;12.90;99.90
28863;DHT22;15994;51.796;13.006;2023-04-01T10:58:20;13.10;99.90
28863;DHT22;15994;51.796;13.006;2023-04-01T11:01:24;13.20;99.90
28863;DHT22;15994;51.796;13.006;2023-04-01T11:04:24;13.20;99.90
28863;DHT22;15994;51.796;13.006;2023-04-01T11:07:39;13.20;99.90
28863;DHT22;15994;51.796;13.006;2023-04-01T11:28:27;13.40;99.90
28863;DHT22;15994;51.796;13.006;2023-04-01T11:36:56;13.60;99.90
28863;DHT22;15994;51.796;13.006;2023-04-01T11:53:44;13.20;99.90
28863;DHT22;15994;51.796;13.006;2023-04-01T11:56:52;13.40;99.90
28863;DHT22;15994;51.796;13.006;2023-04-01T12:02:13;13.60;99.90
28863;DHT22;15994;51.796;13.006;2023-04-01T12:08:08;13.50;99.90
28863;DHT22;15994;51.796;13.006;2023-04-01T12:10:28;13.70;99.90
28863;DHT22;15994;51.796;13.006;2023-04-01T12:15:45;14.40;99.90
28863;DHT22;15994;51.796;13.006;2023-04-01T12:29:35;14.40;99.90
28863;DHT22;15994;51.796;13.006;2023-04-01T12:42:34;14.40;99.90
28863;DHT22;15994;51.796;13.006;2023-04-01T12:45:35;14.30;99.90
28863;DHT22;15994;51.796;13.006;2023-04-01T12:48:20;14.20;99.90
28863;DHT22;15994;51.796;13.006;2023-04-01T12:56:58;14.50;99.90
28863;DHT22;15994;51.796;13.006;2023-04-01T12:59:42;14.60;99.90
28863;DHT22;15994;51.796;13.006;2023-04-01T13:05:15;14.80;99.90
28863;DHT22;15994;51.796;13.006;2023-04-01T13:10:49;15.00;99.90
28863;DHT22;15994;51.796;13.006;2023-04-01T13:13:54;14.80;99.90
28863;DHT22;15994;51.796;13.006;2023-04-01T13:16:29;15.00;99.90
28863;DHT22;15994;51.796;13.006;2023-04-01T13:19:20;14.90;99.90
28863;DHT22;15994;51.796;13.006;2023-04-01T13:32:29;14.90;99.90
28863;DHT22;15994;51.796;13.006;2023-04-01T13:41:05;14.80;99.90
28863;DHT22;15994;51.796;13.006;2023-04-01T13:46:15;14.70;99.90
28863;DHT22;15994;51.796;13.006;2023-04-01T13:49:08;14.60;99.90
28863;DHT22;15994;51.796;13.006;2023-04-01T13:51:56;14.60;99.90
28863;DHT22;15994;51.796;13.006;2023-04-01T13:58:14;14.50;99.90
28863;DHT22;15994;51.796;13.006;2023-04-01T14:09:07;14.60;99.90
28863;DHT22;15994;51.796;13.006;2023-04-01T14:11:55;14.60;99.90
28863;DHT22;15994;51.796;13.006;2023-04-01T14:15:01;14.60;99.90
28863;DHT22;15994;51.796;13.006;2023-04-01T14:20:21;14.60;99.90
28863;DHT22;15994;51.796;13.006;2023-04-01T14:25:51;14.90;99.90
28863;DHT22;15994;51.796;13.006;2023-04-01T14:37:11;14.90;99.90
28863;DHT22;15994;51.796;13.006;2023-04-01T14:40:16;14.80;99.90
28863;DHT22;15994;51.796;13.006;2023-04-01T14:45:25;14.80;99.90
28863;DHT22;15994;51.796;13.006;2023-04-01T14:50:44;14.80;99.90
28863;DHT22;15994;51.796;13.006;2023-04-01T14:53:28;14.90;99.90
28863;DHT22;15994;51.796;13.006;2023-04-01T14:55:59;14.80;99.90
28863;DHT22;15994;51.796;13.006;2023-04-01T14:59:28;14.90;99.90
28863;DHT22;15994;51.796;13.006;2023-04-01T15:08:30;14.50;99.90
28863;DHT22;15994;51.796;13.006;2023-04-01T15:13:06;14.70;99.90
28863;DHT22;15994;51.796;13.006;2023-04-01T15:16:01;14.60;99.90
28863;DHT22;15994;51.796;13.006;2023-04-01T15:19:01;14.60;99.90
28863;DHT22;15994;51.796;13.006;2023-04-01T15:21:59;14.40;99.90
28863;DHT22;15994;51.796;13.006;2023-04-01T15:25:01;14.30;99.90
28863;DHT22;15994;51.796;13.006;2023-04-01T15:27:40;14.30;99.90
28863;DHT22;15994;51.796;13.006;2023-04-01T15:30:14;14.20;99.90
28863;DHT22;15994;51.796;13.006;2023-04-01T15:35:33;13.80;99.90
28863;DHT22;15994;51.796;13.006;2023-04-01T15:38:24;13.50;99.90
28863;DHT22;15994;51.796;13.006;2023-04-01T15:43:57;12.80;99.90
28863;DHT22;15994;51.796;13.006;2023-04-01T15:49:02;12.20;99.90
28863;DHT22;15994;51.796;13.006;2023-04-01T15:51:44;12.00;99.90
28863;DHT22;15994;51.796;13.006;2023-04-01T15:54:38;11.60;99.90
28863;DHT22;15994;51.796;13.006;2023-04-01T15:57:24;11.50;99.90
28863;DHT22;15994;51.796;13.006;2023-04-01T16:20:24;10.50;99.90
28863;DHT22;15994;51.796;13.006;2023-04-01T16:23:13;10.50;99.90
28863;DHT22;15994;51.796;13.006;2023-04-01T16:25:49;10.30;99.90
28863;DHT22;15994;51.796;13.006;2023-04-01T16:28:27;10.20;99.90
28863;DHT22;15994;51.796;13.006;2023-04-01T16:31:13;10.10;99.90
28863;DHT22;15994;51.796;13.006;2023-04-01T16:33:49;10.00;99.90
28863;DHT22;15994;51.796;13.006;2023-04-01T16:39:33;10.10;99.90
28863;DHT22;15994;51.796;13.006;2023-04-01T16:44:54;10.00;99.90
28863;DHT22;15994;51.796;13.006;2023-04-01T16:47:32;9.80;99.90
28863;DHT22;15994;51.796;13.006;2023-04-01T16:56:16;9.70;99.90
28863;DHT22;15994;51.796;13.006;2023-04-01T16:59:07;9.50;99.90
28863;DHT22;15994;51.796;13.006;2023-04-01T17:04:23;9.50;99.90
28863;DHT22;15994;51.796;13.006;2023-04-01T17:12:56;9.30;99.90
28863;DHT22;15994;51.796;13.006;2023-04-01T17:15:53;9.30;99.90
28863;DHT22;15994;51.796;13.006;2023-04-01T17:18:32;9.20;99.90
28863;DHT22;15994;51.796;13.006;2023-04-01T17:21:13;9.10;99.90
28863;DHT22;15994;51.796;13.006;2023-04-01T17:23:51;9.10;99.90
28863;DHT22;15994;51.796;13.006;2023-04-01T17:29:28;8.80;99.90
28863;DHT22;15994;51.796;13.006;2023-04-01T17:32:09;8.90;99.90
28863;DHT22;15994;51.796;13.006;2023-04-01T17:35:00;8.80;99.90
28863;DHT22;15994;51.796;13.006;2023-04-01T17:38:06;8.80;99.90
28863;DHT22;15994;51.796;13.006;2023-04-01T17:43:46;8.70;99.90
28863;DHT22;15994;51.796;13.006;2023-04-01T17:46:36;8.60;99.90
28863;DHT22;15994;51.796;13.006;2023-04-01T17:52:27;8.60;99.90
28863;DHT22;15994;51.796;13.006;2023-04-01T17:58:19;8.60;99.90
28863;DHT22;15994;51.796;13.006;2023-04-01T18:00:51;8.60;99.90
28863;DHT22;15994;51.796;13.006;2023-04-01T18:06:06;8.50;99.90
28863;DHT22;15994;51.796;13.006;2023-04-01T18:08:59;8.30;99.90
28863;DHT22;15994;51.796;13.006;2023-04-01T18:17:18;8.30;99.90
28863;DHT22;15994;51.796;13.006;2023-04-01T18:20:15;8.20;99.90
28863;DHT22;15994;51.796;13.006;2023-04-01T18:22:57;8.10;99.90
28863;DHT22;15994;51.796;13.006;2023-04-01T18:25:45;8.10;99.90
28863;DHT22;15994;51.796;13.006;2023-04-01T18:39:23;8.00;99.90
28863;DHT22;15994;51.796;13.006;2023-04-01T18:42:03;7.90;99.90
28863;DHT22;15994;51.796;13.006;2023-04-01T18:44:50;7.90;99.90
28863;DHT22;15994;51.796;13.006;2023-04-01T18:53:47;7.80;99.90
28863;DHT22;15994;51.796;13.006;2023-04-01T18:56:29;7.80;99.90
28863;DHT22;15994;51.796;13.006;2023-04-01T18:59:52;7.80;99.90
28863;DHT22;15994;51.796;13.006;2023-04-01T19:02:27;7.80;99.90
28863;DHT22;15994;51.796;13.006;2023-04-01T19:13:20;7.60;99.90
28863;DHT22;15994;51.796;13.006;2023-04-01T19:21:19;7.50;99.90
28863;DHT22;15994;51.796;13.006;2023-04-01T19:26:56;7.50;99.90
28863;DHT22;15994;51.796;13.006;2023-04-01T19:38:04;7.40;99.90
28863;DHT22;15994;51.796;13.006;2023-04-01T19:43:57;7.30;99.90
28863;DHT22;15994;51.796;13.006;2023-04-01T19:46:33;7.20;99.90
28863;DHT22;15994;51.796;13.006;2023-04-01T19:49:35;7.20;99.90
28863;DHT22;15994;51.796;13.006;2023-04-01T19:57:26;7.00;99.90
28863;DHT22;15994;51.796;13.006;2023-04-01T20:00:16;6.80;99.90
28863;DHT22;15994;51.796;13.006;2023-04-01T20:03:01;6.90;99.90
28863;DHT22;15994;51.796;13.006;2023-04-01T20:05:41;6.80;99.90
28863;DHT22;15994;51.796;13.006;2023-04-01T20:08:52;6.70;99.90
28863;DHT22;15994;51.796;13.006;2023-04-01T20:19:25;6.30;99.90
28863;DHT22;15994;51.796;13.006;2023-04-01T20:21:57;6.30;99.90
28863;DHT22;15994;51.796;13.006;2023-04-01T20:24:41;6.30;99.90
28863;DHT22;15994;51.796;13.006;2023-04-01T20:29:41;6.20;99.90
28863;DHT22;15994;51.796;13.006;2023-04-01T20:32:19;6.10;99.90
28863;DHT22;15994;51.796;13.006;2023-04-01T20:37:59;6.10;99.90
28863;DHT22;15994;51.796;13.006;2023-04-01T20:40:38;6.20;99.90
28863;DHT22;15994;51.796;13.006;2023-04-01T20:46:07;6.00;99.90
28863;DHT22;15994;51.796;13.006;2023-04-01T20:51:34;6.10;99.90
28863;DHT22;15994;51.796;13.006;2023-04-01T21:02:19;6.00;99.90
28863;DHT22;15994;51.796;13.006;2023-04-01T21:05:21;6.00;99.90
28863;DHT22;15994;51.796;13.006;2023-04-01T21:10:43;5.90;99.90
28863;DHT22;15994;51.796;13.006;2023-04-01T21:13:43;5.90;99.90
28863;DHT22;15994;51.796;13.006;2023-04-01T21:19:38;5.90;99.90
28863;DHT22;15994;51.796;13.006;2023-04-01T21:22:39;5.90;99.90
28863;DHT22;15994;51.796;13.006;2023-04-01T21:28:11;5.80;99.90
28863;DHT22;15994;51.796;13.006;2023-04-01T21:30:51;5.80;99.90
28863;DHT22;15994;51.796;13.006;2023-04-01T21:33:54;5.80;99.90
28863;DHT22;15994;51.796;13.006;2023-04-01T21:36:52;5.80;99.90
28863;DHT22;15994;51.796;13.006;2023-04-01T21:42:03;5.70;99.90
28863;DHT22;15994;51.796;13.006;2023-04-01T22:08:26;5.50;99.90
28863;DHT22;15994;51.796;13.006;2023-04-01T22:11:19;5.50;99.90
28863;DHT22;15994;51.796;13.006;2023-04-01T22:17:31;5.40;99.90
28863;DHT22;15994;51.796;13.006;2023-04-01T22:20:15;5.40;99.90
28863;DHT22;15994;51.796;13.006;2023-04-01T22:25:57;5.30;99.90
28863;DHT22;15994;51.796;13.006;2023-04-01T22:31:47;5.20;99.90
28863;DHT22;15994;51.796;13.006;2023-04-01T22:37:09;5.20;99.90
28863;DHT22;15994;51.796;13.006;2023-04-01T22:42:27;5.10;99.90
28863;DHT22;15994;51.796;13.006;2023-04-01T22:50:24;4.80;99.90
28863;DHT22;15994;51.796;13.006;2023-04-01T22:53:15;4.80;99.90
28863;DHT22;15994;51.796;13.006;2023-04-01T22:55:46;4.80;99.90
28863;DHT22;15994;51.796;13.006;2023-04-01T22:58:22;4.80;99.90
28863;DHT22;15994;51.796;13.006;2023-04-01T23:00:56;4.70;99.90
28863;DHT22;15994;51.796;13.006;2023-04-01T23:03:34;4.70;99.90
28863;DHT22;15994;51.796;13.006;2023-04-01T23:06:04;4.70;99.90
28863;DHT22;15994;51.796;13.006;2023-04-01T23:11:22;4.70;99.90
28863;DHT22;15994;51.796;13.006;2023-04-01T23:14:00;4.70;99.90
28863;DHT22;15994;51.796;13.006;2023-04-01T23:16:39;4.60;99.90
28863;DHT22;15994;51.796;13.006;2023-04-01T23:19:27;4.60;99.90
28863;DHT22;15994;51.796;13.006;2023-04-01T23:22:08;4.60;99.90
28863;DHT22;15994;51.796;13.006;2023-04-01T23:24:50;4.50;99.90
28863;DHT22;15994;51.796;13.006;2023-04-01T23:27:42;4.50;99.90
28863;DHT22;15994;51.796;13.006;2023-04-01T23:33:30;4.40;99.90
28863;DHT22;15994;51.796;13.006;2023-04-01T23:36:09;4.40;99.90
28863;DHT22;15994;51.796;13.006;2023-04-01T23:38:39;4.30;99.90
28863;DHT22;15994;51.796;13.006;2023-04-01T23:41:16;4.30;99.90
28863;DHT22;15994;51.796;13.006;2023-04-01T23:43:44;4.30;99.90
28863;DHT22;15994;51.796;13.006;2023-04-01T23:46:12;4.30;99.90
28863;DHT22;15994;51.796;13.006;2023-04-01T23:48:44;4.30;99.90
28863;DHT22;15994;51.796;13.006;2023-04-01T23:51:27;4.30;99.90
28863;DHT22;15994;51.796;13.006;2023-04-01T23:54:13;4.30;99.90
28863;DHT22;15994;51.796;13.006;2023-04-01T23:56:52;4.30;99.90
28863;DHT22;15994;51.796;13.006;2023-04-01T23:59:27;4.20;99.90
